Time;durP1;ratioP1;P1;durP2;ratioP2;P2;SDS_P1;SDS_P2;PMS_P1;PMS_P2;Temp;Humidity;BMP_temperature;BMP_pressure;BME280_temperature;BME280_humidity;BME280_pressure;Samples;Min_cycle;Max_cycle;Signal;HPM_P1;HPM_P2
2023/04/15 00:00:50;;;;;;;7.50;6.80;;;5.30;99.90;;;;;;5033866;28;20021;-58
2023/04/15 00:03:16;;;;;;;6.95;6.32;;;5.30;99.90;;;;;;5033633;28;20024;-59
2023/04/15 00:05:42;;;;;;;6.28;5.70;;;5.30;99.90;;;;;;5033646;28;20325;-59
2023/04/15 00:08:11;;;;;;;7.13;6.43;;;5.30;99.90;;;;;;5033384;28;20022;-55
2023/04/15 00:10:37;;;;;;;7.22;6.55;;;5.40;99.90;;;;;;5032248;28;20034;-59
2023/04/15 00:13:03;;;;;;;7.13;6.45;;;5.40;99.90;;;;;;5033216;28;20021;-59
2023/04/15 00:15:29;;;;;;;7.80;7.10;;;5.40;99.90;;;;;;5033405;28;20041;-58
2023/04/15 00:17:54;;;;;;;9.00;7.50;;;5.40;99.90;;;;;;5034044;28;20031;-58
2023/04/15 00:20:20;;;;;;;9.07;8.18;;;5.40;99.90;;;;;;5032943;28;20025;-58
2023/04/15 00:22:46;;;;;;;9.32;8.43;;;5.40;99.90;;;;;;5033138;28;20022;-57
2023/04/15 00:25:15;;;;;;;10.75;8.32;;;5.40;99.90;;;;;;5033144;28;20032;-59
2023/04/15 00:27:41;;;;;;;9.55;8.65;;;5.30;99.90;;;;;;5032053;28;20025;-57
2023/04/15 00:30:07;;;;;;;8.88;8.07;;;5.40;99.90;;;;;;5033083;28;20037;-56
2023/04/15 00:32:33;;;;;;;10.43;9.43;;;5.40;99.90;;;;;;5032956;28;20029;-55
2023/04/15 00:34:58;;;;;;;10.80;9.70;;;5.40;99.90;;;;;;5033436;28;20111;-58
2023/04/15 00:37:24;;;;;;;10.40;9.23;;;5.30;99.90;;;;;;5032700;28;20393;-59
2023/04/15 00:39:50;;;;;;;11.05;9.35;;;5.30;99.90;;;;;;5033063;28;20022;-56
2023/04/15 00:42:16;;;;;;;9.25;8.23;;;5.30;99.90;;;;;;5032749;28;20171;-58
2023/04/15 00:44:42;;;;;;;9.82;8.93;;;5.30;99.90;;;;;;5033155;28;20022;-59
2023/04/15 00:47:08;;;;;;;9.77;8.77;;;5.20;99.90;;;;;;5032545;28;20491;-59
2023/04/15 00:49:34;;;;;;;8.75;7.78;;;5.30;99.90;;;;;;5032971;28;20090;-58
2023/04/15 00:51:59;;;;;;;8.80;7.95;;;5.30;99.90;;;;;;5032964;28;20021;-58
2023/04/15 00:54:25;;;;;;;12.55;8.52;;;5.40;99.90;;;;;;5031453;28;20033;-59
2023/04/15 00:56:51;;;;;;;8.50;7.65;;;5.40;99.90;;;;;;5031300;28;20025;-59
2023/04/15 00:59:19;;;;;;;9.32;8.32;;;5.30;99.90;;;;;;5031135;28;20026;-58
2023/04/15 01:01:45;;;;;;;9.10;8.20;;;5.30;99.90;;;;;;5032649;28;20369;-53
2023/04/15 01:04:16;;;;;;;14.20;7.80;;;5.30;99.90;;;;;;5032430;28;20397;-59
2023/04/15 01:06:42;;;;;;;8.55;7.60;;;5.40;99.90;;;;;;5032365;28;20096;-55
2023/04/15 01:09:23;;;;;;;8.73;7.57;;;5.40;99.90;;;;;;5032234;28;20449;-58
2023/04/15 01:11:49;;;;;;;9.95;8.63;;;5.30;99.90;;;;;;5032415;28;20512;-59
2023/04/15 01:14:15;;;;;;;9.45;8.50;;;5.30;99.90;;;;;;5031936;28;20049;-57
2023/04/15 01:16:41;;;;;;;15.07;9.07;;;5.20;99.90;;;;;;5032170;28;20033;-59
2023/04/15 01:19:09;;;;;;;8.82;7.93;;;5.30;99.90;;;;;;5030812;28;20029;-59
2023/04/15 01:21:38;;;;;;;9.32;7.15;;;5.30;99.90;;;;;;5032232;28;20025;-59
2023/04/15 01:24:09;;;;;;;9.85;8.45;;;5.30;99.90;;;;;;5030744;28;20105;-59
2023/04/15 01:26:39;;;;;;;7.82;7.07;;;5.30;99.90;;;;;;5032509;28;20109;-58
2023/04/15 01:29:05;;;;;;;8.52;7.63;;;5.30;99.90;;;;;;5032203;28;20034;-57
2023/04/15 01:31:31;;;;;;;8.57;7.18;;;5.20;99.90;;;;;;5031345;28;20037;-56
2023/04/15 01:33:58;;;;;;;8.10;7.38;;;5.30;99.90;;;;;;5031946;28;20136;-56
2023/04/15 01:36:24;;;;;;;9.40;8.02;;;5.30;99.90;;;;;;5031532;28;20033;-57
2023/04/15 01:38:50;;;;;;;8.30;7.50;;;5.30;99.90;;;;;;5031960;28;20203;-55
2023/04/15 01:41:20;;;;;;;9.60;8.30;;;5.30;99.90;;;;;;5031586;28;20049;-59
2023/04/15 01:43:45;;;;;;;9.40;8.45;;;5.30;99.90;;;;;;5030514;28;20025;-57
2023/04/15 01:46:11;;;;;;;10.07;9.05;;;5.20;99.90;;;;;;5031665;28;20025;-59
2023/04/15 01:48:37;;;;;;;9.73;8.65;;;5.20;99.90;;;;;;5031731;28;20037;-59
2023/04/15 01:51:02;;;;;;;10.50;9.50;;;5.30;99.90;;;;;;5031525;28;20025;-57
2023/04/15 01:53:28;;;;;;;9.68;8.57;;;5.30;99.90;;;;;;5031651;28;20029;-58
2023/04/15 01:55:55;;;;;;;11.82;8.50;;;5.40;99.90;;;;;;5031459;28;20029;-55
2023/04/15 01:58:21;;;;;;;9.60;8.40;;;5.40;99.90;;;;;;5031278;28;20057;-58
2023/04/15 02:00:47;;;;;;;9.90;8.48;;;5.40;99.90;;;;;;5030265;28;20469;-58
2023/04/15 02:03:12;;;;;;;10.85;8.32;;;5.30;99.90;;;;;;5031552;28;20029;-59
2023/04/15 02:05:38;;;;;;;9.68;8.27;;;5.30;99.90;;;;;;5031281;28;20022;-57
2023/04/15 02:08:04;;;;;;;12.98;9.13;;;5.40;99.90;;;;;;5029828;28;20362;-59
2023/04/15 02:10:30;;;;;;;11.40;9.05;;;5.30;99.90;;;;;;5031302;28;20059;-57
2023/04/15 02:12:55;;;;;;;10.38;8.57;;;5.30;99.90;;;;;;5031097;28;20511;-58
2023/04/15 02:15:21;;;;;;;10.23;9.13;;;5.30;99.90;;;;;;5031231;28;20044;-59
2023/04/15 02:17:49;;;;;;;8.80;7.93;;;5.30;99.90;;;;;;5030903;28;20025;-59
2023/04/15 02:20:19;;;;;;;11.30;8.32;;;5.30;99.90;;;;;;5031152;28;20053;-58
2023/04/15 02:22:46;;;;;;;11.48;9.93;;;5.30;99.90;;;;;;5031181;28;20024;-59
2023/04/15 02:25:19;;;;;;;9.35;8.35;;;5.30;99.90;;;;;;5030835;28;20021;-54
2023/04/15 02:27:44;;;;;;;14.82;9.93;;;5.20;99.90;;;;;;5031150;28;20025;-59
2023/04/15 02:30:10;;;;;;;18.45;10.73;;;5.20;99.90;;;;;;5031102;28;20404;-59
2023/04/15 02:32:37;;;;;;;10.73;9.57;;;5.20;99.90;;;;;;5030899;28;20033;-57
2023/04/15 02:35:07;;;;;;;12.18;9.75;;;5.20;99.90;;;;;;5030749;28;20025;-57
2023/04/15 02:37:39;;;;;;;10.40;9.05;;;5.20;99.90;;;;;;5030682;28;20026;-59
2023/04/15 02:40:07;;;;;;;11.55;9.63;;;5.10;99.90;;;;;;5030696;28;20026;-58
2023/04/15 02:42:32;;;;;;;12.75;9.35;;;5.10;99.90;;;;;;5030759;28;20029;-59
2023/04/15 02:44:58;;;;;;;13.98;11.63;;;5.10;99.90;;;;;;5029459;28;20022;-58
2023/04/15 02:47:24;;;;;;;10.45;9.40;;;5.10;99.90;;;;;;5030569;28;20029;-58
2023/04/15 02:49:49;;;;;;;11.40;9.35;;;5.10;99.90;;;;;;5030768;28;20071;-57
2023/04/15 02:52:15;;;;;;;14.65;9.80;;;5.10;99.90;;;;;;5030511;28;20033;-58
2023/04/15 02:54:41;;;;;;;11.52;9.48;;;5.10;99.90;;;;;;5030717;28;20373;-59
2023/04/15 02:57:07;;;;;;;13.50;10.43;;;5.10;99.90;;;;;;5030334;28;20032;-59
2023/04/15 02:59:32;;;;;;;10.90;9.60;;;5.10;99.90;;;;;;5030317;28;20113;-55
2023/04/15 03:01:59;;;;;;;10.52;8.45;;;5.10;99.90;;;;;;5030597;28;20542;-59
2023/04/15 03:04:28;;;;;;;12.27;9.07;;;5.10;99.90;;;;;;5030456;28;20025;-59
2023/04/15 03:06:55;;;;;;;10.43;8.70;;;5.10;99.90;;;;;;5030428;28;20022;-58
2023/04/15 03:09:20;;;;;;;10.23;8.45;;;5.10;99.90;;;;;;5030387;28;20067;-59
2023/04/15 03:11:46;;;;;;;9.73;8.70;;;5.10;99.90;;;;;;5030578;28;20443;-59
2023/04/15 03:14:18;;;;;;;13.80;10.10;;;5.10;99.90;;;;;;5030252;28;20080;-56
2023/04/15 03:16:43;;;;;;;12.82;10.18;;;5.10;99.90;;;;;;5030569;28;20103;-60
2023/04/15 03:19:28;;;;;;;10.43;9.32;;;5.00;99.90;;;;;;5030495;28;20029;-57
2023/04/15 03:21:54;;;;;;;14.23;10.52;;;5.00;99.90;;;;;;5030452;28;20440;-56
2023/04/15 03:24:19;;;;;;;13.10;10.43;;;5.00;99.90;;;;;;5030096;28;20020;-59
2023/04/15 03:26:45;;;;;;;12.05;9.88;;;5.10;99.90;;;;;;5030442;28;20024;-60
2023/04/15 03:29:11;;;;;;;11.20;9.68;;;5.10;99.90;;;;;;5030295;28;20152;-57
2023/04/15 03:31:36;;;;;;;11.48;9.50;;;5.10;99.90;;;;;;5030322;28;20083;-57
2023/04/15 03:34:02;;;;;;;8.98;8.10;;;5.10;99.90;;;;;;5029976;28;20037;-59
2023/04/15 03:36:31;;;;;;;9.07;8.18;;;5.00;99.90;;;;;;5030171;28;20087;-60
2023/04/15 03:38:58;;;;;;;9.75;8.70;;;5.10;99.90;;;;;;5030281;28;20026;-56
2023/04/15 03:41:23;;;;;;;9.20;7.72;;;5.00;99.90;;;;;;5030098;28;20091;-59
2023/04/15 03:43:50;;;;;;;8.68;7.15;;;5.00;99.90;;;;;;5030136;28;20013;-57
2023/04/15 03:46:17;;;;;;;8.35;7.32;;;5.00;99.90;;;;;;5029762;28;20064;-58
2023/04/15 03:48:42;;;;;;;8.60;7.80;;;5.00;99.90;;;;;;5030056;28;20032;-59
2023/04/15 03:51:08;;;;;;;9.88;7.88;;;4.90;99.90;;;;;;5029925;28;20484;-55
2023/04/15 03:53:34;;;;;;;9.27;8.30;;;4.90;99.90;;;;;;5028934;28;20036;-58
2023/04/15 03:56:00;;;;;;;7.97;7.15;;;4.90;99.90;;;;;;5032779;28;20477;-57
2023/04/15 03:58:26;;;;;;;8.50;7.43;;;4.90;99.90;;;;;;5033683;28;20064;-59
2023/04/15 04:00:51;;;;;;;12.20;8.60;;;4.90;99.90;;;;;;5033471;28;20021;-57
2023/04/15 04:03:17;;;;;;;10.85;9.75;;;4.90;99.90;;;;;;5033464;28;20021;-59
2023/04/15 04:05:43;;;;;;;8.15;7.45;;;4.90;99.90;;;;;;5033582;28;20021;-54
2023/04/15 04:08:10;;;;;;;11.65;8.15;;;4.90;99.90;;;;;;5033404;28;20338;-55
2023/04/15 04:10:35;;;;;;;8.70;7.38;;;4.90;99.90;;;;;;5033631;28;20056;-56
2023/04/15 04:13:01;;;;;;;8.80;7.93;;;4.90;99.90;;;;;;5033243;28;20057;-58
2023/04/15 04:15:27;;;;;;;9.45;8.52;;;4.90;99.90;;;;;;5033462;28;20036;-57
2023/04/15 04:17:52;;;;;;;8.82;7.93;;;4.90;99.90;;;;;;5033194;28;20630;-58
2023/04/15 04:20:18;;;;;;;8.77;6.78;;;4.90;99.90;;;;;;5031944;28;20469;-56
2023/04/15 04:22:44;;;;;;;9.52;7.78;;;4.90;99.90;;;;;;5033414;28;20009;-56
2023/04/15 04:25:10;;;;;;;8.52;7.00;;;4.90;99.90;;;;;;5033180;28;20024;-55
2023/04/15 04:27:45;;;;;;;8.27;7.47;;;4.90;99.90;;;;;;5033221;28;20037;-57
2023/04/15 04:30:15;;;;;;;9.73;7.82;;;4.90;99.90;;;;;;5032885;28;20477;-57
2023/04/15 04:32:41;;;;;;;9.52;7.70;;;4.90;99.90;;;;;;5033110;28;20397;-59
2023/04/15 04:35:12;;;;;;;12.43;8.77;;;4.90;99.90;;;;;;5032867;28;20018;-57
2023/04/15 04:37:38;;;;;;;9.38;8.55;;;4.90;99.90;;;;;;5033070;28;20087;-57
2023/04/15 04:40:04;;;;;;;9.13;8.18;;;4.90;99.90;;;;;;5032991;28;20100;-57
2023/04/15 04:42:30;;;;;;;11.10;8.50;;;4.90;99.90;;;;;;5033248;28;20105;-57
2023/04/15 04:44:56;;;;;;;10.55;9.45;;;5.00;99.90;;;;;;5033069;28;20139;-56
2023/04/15 04:47:22;;;;;;;10.02;9.02;;;4.90;99.90;;;;;;5032959;28;20048;-58
2023/04/15 04:49:47;;;;;;;10.32;8.32;;;4.90;99.90;;;;;;5032752;28;20028;-57
2023/04/15 04:52:13;;;;;;;9.77;8.68;;;5.00;99.90;;;;;;5032701;28;20160;-57
2023/04/15 04:54:38;;;;;;;9.63;8.43;;;5.00;99.90;;;;;;5032750;28;20061;-56
2023/04/15 04:57:06;;;;;;;13.88;10.45;;;5.00;99.90;;;;;;5032479;28;20029;-58
2023/04/15 04:59:32;;;;;;;12.80;10.55;;;5.00;99.90;;;;;;5032587;28;20042;-57
2023/04/15 05:01:58;;;;;;;11.07;9.38;;;4.90;99.90;;;;;;5032681;28;20391;-55
2023/04/15 05:04:25;;;;;;;12.63;11.23;;;4.90;99.90;;;;;;5032554;28;20025;-59
2023/04/15 05:06:50;;;;;;;15.60;11.43;;;4.90;99.90;;;;;;5031193;28;20024;-59
2023/04/15 05:09:16;;;;;;;13.07;11.70;;;4.90;99.90;;;;;;5032631;28;20029;-59
2023/04/15 05:11:42;;;;;;;12.60;10.65;;;4.90;99.90;;;;;;5032380;28;20027;-57
2023/04/15 05:14:07;;;;;;;10.43;9.30;;;4.90;99.90;;;;;;5032082;28;20132;-59
2023/04/15 05:16:33;;;;;;;12.43;11.20;;;4.90;99.90;;;;;;5032339;28;20021;-57
2023/04/15 05:18:58;;;;;;;10.35;9.25;;;5.00;99.90;;;;;;5032359;28;20029;-56
2023/04/15 05:21:25;;;;;;;12.32;10.23;;;4.90;99.90;;;;;;5031978;28;20021;-58
2023/04/15 05:23:50;;;;;;;14.43;9.85;;;5.00;99.90;;;;;;5032204;28;20071;-58
2023/04/15 05:26:16;;;;;;;35.55;18.13;;;5.00;99.90;;;;;;5031816;28;20423;-58
2023/04/15 05:28:42;;;;;;;31.80;18.55;;;5.00;99.90;;;;;;5032440;28;20025;-59
2023/04/15 05:31:07;;;;;;;15.65;12.20;;;5.00;99.90;;;;;;5032110;28;20083;-58
2023/04/15 05:33:33;;;;;;;11.10;9.38;;;5.00;99.90;;;;;;5032002;28;20022;-59
2023/04/15 05:35:59;;;;;;;9.93;8.93;;;5.10;99.90;;;;;;5032090;28;20021;-55
2023/04/15 05:38:25;;;;;;;9.55;8.63;;;5.00;99.90;;;;;;5031701;28;20036;-58
2023/04/15 05:40:51;;;;;;;10.95;9.88;;;5.10;99.90;;;;;;5031717;28;20063;-58
2023/04/15 05:43:17;;;;;;;12.10;10.10;;;5.10;99.90;;;;;;5031651;28;20025;-57
2023/04/15 05:45:42;;;;;;;11.95;10.18;;;5.10;99.90;;;;;;5031724;28;20032;-57
2023/04/15 05:48:08;;;;;;;9.50;8.50;;;5.10;99.90;;;;;;5031490;28;20027;-57
2023/04/15 05:50:34;;;;;;;20.85;14.52;;;5.20;99.90;;;;;;5031783;28;20091;-57
2023/04/15 05:53:00;;;;;;;9.38;8.35;;;5.10;99.90;;;;;;5031582;28;20463;-55
2023/04/15 05:55:26;;;;;;;8.98;8.07;;;5.20;99.90;;;;;;5031391;28;20029;-56
2023/04/15 05:57:52;;;;;;;55.67;21.90;;;5.20;99.90;;;;;;5031241;28;20419;-56
2023/04/15 06:00:17;;;;;;;37.58;16.60;;;5.20;99.90;;;;;;5031364;28;20473;-59
2023/04/15 06:02:43;;;;;;;35.08;19.30;;;5.20;99.90;;;;;;5031514;28;20374;-57
2023/04/15 06:05:15;;;;;;;12.82;9.07;;;5.20;99.90;;;;;;5031211;28;20025;-57
2023/04/15 06:07:42;;;;;;;12.48;10.63;;;5.20;99.90;;;;;;5031224;28;20029;-55
2023/04/15 06:10:08;;;;;;;8.10;7.30;;;5.20;99.90;;;;;;5031180;28;20029;-60
2023/04/15 06:12:35;;;;;;;8.27;7.47;;;5.20;99.90;;;;;;5030978;28;20417;-59
2023/04/15 06:15:01;;;;;;;8.40;7.60;;;5.10;99.90;;;;;;5030830;28;20049;-59
2023/04/15 06:17:26;;;;;;;6.80;5.85;;;5.20;99.90;;;;;;5030647;28;20021;-57
2023/04/15 06:19:55;;;;;;;7.38;6.68;;;5.20;99.90;;;;;;5031165;28;20023;-55
2023/04/15 06:22:22;;;;;;;7.68;6.90;;;5.10;99.90;;;;;;5029508;28;20021;-56
2023/04/15 06:24:49;;;;;;;7.30;6.60;;;5.10;99.90;;;;;;5030865;28;20163;-59
2023/04/15 06:27:15;;;;;;;8.10;5.40;;;5.10;99.90;;;;;;5030824;28;20138;-56
2023/04/15 06:29:41;;;;;;;7.25;5.57;;;5.10;99.90;;;;;;5029861;28;20135;-59
2023/04/15 06:32:10;;;;;;;7.90;5.45;;;5.10;99.90;;;;;;5030637;28;20224;-59
2023/04/15 06:34:35;;;;;;;5.32;4.82;;;5.10;99.90;;;;;;5030704;28;20032;-57
2023/04/15 06:37:01;;;;;;;6.20;5.68;;;5.10;99.90;;;;;;5030763;28;20021;-57
2023/04/15 06:39:26;;;;;;;5.40;4.90;;;5.10;99.90;;;;;;5030588;28;20029;-57
2023/04/15 06:41:52;;;;;;;5.43;4.90;;;5.20;99.90;;;;;;5030724;28;20021;-56
2023/04/15 06:44:18;;;;;;;5.90;5.15;;;5.30;99.90;;;;;;5030404;28;20021;-58
2023/04/15 06:46:44;;;;;;;5.32;4.93;;;5.20;99.90;;;;;;5030542;28;20025;-52
2023/04/15 06:49:10;;;;;;;13.55;9.88;;;5.20;99.90;;;;;;5030860;28;20370;-54
2023/04/15 06:51:36;;;;;;;28.88;16.35;;;5.20;99.90;;;;;;5030610;28;20052;-57
2023/04/15 06:54:04;;;;;;;36.42;20.40;;;5.30;99.90;;;;;;5030249;28;20022;-58
2023/04/15 06:56:31;;;;;;;8.10;6.35;;;5.40;99.90;;;;;;5031268;28;20376;-55
2023/04/15 06:58:56;;;;;;;9.52;7.38;;;5.50;99.90;;;;;;5030390;28;20029;-55
2023/04/15 07:01:22;;;;;;;4.80;4.30;;;5.60;99.90;;;;;;5030183;28;20485;-56
2023/04/15 07:03:48;;;;;;;10.00;7.43;;;5.60;99.90;;;;;;5030736;28;20053;-57
2023/04/15 07:06:19;;;;;;;5.18;4.68;;;5.60;99.90;;;;;;5028909;28;20056;-54
2023/04/15 07:08:44;;;;;;;8.80;7.55;;;5.60;99.90;;;;;;5046912;28;20032;-59
2023/04/15 07:11:10;;;;;;;18.45;12.38;;;5.60;99.90;;;;;;5052563;28;20449;-55
2023/04/15 07:13:36;;;;;;;7.22;6.53;;;5.60;99.90;;;;;;5050384;28;20112;-54
2023/04/15 07:16:02;;;;;;;7.97;4.65;;;5.60;99.90;;;;;;5050405;28;20479;-53
2023/04/15 07:18:27;;;;;;;5.22;4.72;;;5.70;99.90;;;;;;5066673;28;20036;-59
2023/04/15 07:20:53;;;;;;;4.78;4.38;;;5.80;99.90;;;;;;5070044;28;20467;-56
2023/04/15 07:23:18;;;;;;;5.32;4.82;;;5.80;99.90;;;;;;5070024;28;20048;-58
2023/04/15 07:25:44;;;;;;;4.35;3.95;;;5.80;99.90;;;;;;5049516;28;20025;-56
2023/04/15 07:28:10;;;;;;;5.80;5.18;;;5.90;99.90;;;;;;5049745;28;20098;-57
2023/04/15 07:30:36;;;;;;;4.80;4.40;;;5.80;99.90;;;;;;5052205;28;20576;-56
2023/04/15 07:33:03;;;;;;;4.88;4.30;;;5.80;99.90;;;;;;5054044;28;20029;-56
2023/04/15 07:35:28;;;;;;;4.05;3.75;;;5.70;99.90;;;;;;5053984;28;20167;-55
2023/04/15 07:37:54;;;;;;;4.80;4.38;;;5.60;99.90;;;;;;5053737;28;20535;-53
2023/04/15 07:40:21;;;;;;;5.22;3.63;;;5.70;99.90;;;;;;5053799;28;20021;-58
2023/04/15 07:42:48;;;;;;;3.67;3.38;;;5.60;99.90;;;;;;5053442;28;20531;-57
2023/04/15 07:45:14;;;;;;;4.32;4.03;;;5.60;99.90;;;;;;5053721;28;20032;-57
2023/04/15 07:47:40;;;;;;;3.90;3.60;;;5.70;99.90;;;;;;5053919;28;20025;-57
2023/04/15 07:50:07;;;;;;;3.63;3.33;;;5.60;99.90;;;;;;5053560;28;20342;-59
2023/04/15 07:52:37;;;;;;;3.28;3.03;;;5.50;99.90;;;;;;5053712;28;20411;-58
2023/04/15 07:55:05;;;;;;;3.25;3.00;;;5.50;99.90;;;;;;5053630;28;20013;-55
2023/04/15 07:57:31;;;;;;;4.05;3.50;;;5.50;99.90;;;;;;5053514;28;20029;-55
2023/04/15 07:59:57;;;;;;;3.13;2.53;;;5.70;99.90;;;;;;5053388;28;20025;-56
2023/04/15 08:02:22;;;;;;;4.07;3.38;;;5.60;99.90;;;;;;5053375;28;20064;-55
2023/04/15 08:04:48;;;;;;;4.68;2.92;;;5.50;99.90;;;;;;5052388;28;20017;-58
2023/04/15 08:07:14;;;;;;;3.28;3.03;;;5.40;99.90;;;;;;5053228;28;20029;-56
2023/04/15 08:09:40;;;;;;;8.10;4.18;;;5.40;99.90;;;;;;5053345;28;20056;-56
2023/04/15 08:12:08;;;;;;;3.40;3.10;;;5.40;99.90;;;;;;5053142;28;20472;-52
2023/04/15 08:14:34;;;;;;;3.92;3.63;;;5.40;99.90;;;;;;5053015;28;20049;-57
2023/04/15 08:17:00;;;;;;;2.97;2.78;;;5.20;99.90;;;;;;5052820;28;20498;-56
2023/04/15 08:19:25;;;;;;;3.10;2.90;;;5.30;99.90;;;;;;5052811;28;20025;-59
2023/04/15 08:21:51;;;;;;;3.25;2.90;;;5.20;99.90;;;;;;5053062;28;20064;-55
2023/04/15 08:24:17;;;;;;;3.10;2.90;;;5.20;99.90;;;;;;5053102;28;20017;-52
2023/04/15 08:26:43;;;;;;;3.20;2.90;;;5.10;99.90;;;;;;5053086;28;20021;-58
2023/04/15 08:29:08;;;;;;;3.40;3.10;;;5.10;99.90;;;;;;5053209;28;20032;-56
2023/04/15 08:31:34;;;;;;;4.30;3.83;;;5.10;99.90;;;;;;5052934;28;20142;-52
2023/04/15 08:34:00;;;;;;;6.32;5.72;;;5.30;99.90;;;;;;5052491;28;20102;-54
2023/04/15 08:36:26;;;;;;;4.75;4.35;;;5.30;99.90;;;;;;5052782;28;20037;-56
2023/04/15 08:38:51;;;;;;;5.75;5.30;;;5.30;99.90;;;;;;5051630;28;20472;-56
2023/04/15 08:41:24;;;;;;;3.72;3.42;;;5.40;99.90;;;;;;5051125;28;20051;-53
2023/04/15 08:43:57;;;;;;;5.85;3.58;;;5.60;99.90;;;;;;5052637;28;20096;-56
2023/04/15 08:46:23;;;;;;;3.80;3.55;;;5.70;99.90;;;;;;5052601;28;20487;-54
2023/04/15 08:48:49;;;;;;;3.45;3.15;;;5.80;99.90;;;;;;5052590;28;20108;-55
2023/04/15 08:51:16;;;;;;;3.35;3.10;;;5.80;99.90;;;;;;5051900;28;20388;-55
2023/04/15 08:53:46;;;;;;;4.20;2.70;;;5.90;99.90;;;;;;5052446;28;20033;-59
2023/04/15 08:56:13;;;;;;;3.30;3.00;;;5.50;99.90;;;;;;5052364;28;20483;-56
2023/04/15 08:58:39;;;;;;;3.47;3.10;;;5.60;99.90;;;;;;5052510;28;20028;-56
2023/04/15 09:01:05;;;;;;;4.82;2.60;;;5.60;99.90;;;;;;5052255;28;20029;-56
2023/04/15 09:03:31;;;;;;;2.92;2.72;;;5.70;99.90;;;;;;5052433;28;20716;-57
2023/04/15 09:05:57;;;;;;;3.08;2.88;;;5.90;99.90;;;;;;5052280;28;20025;-57
2023/04/15 09:08:23;;;;;;;3.15;2.95;;;5.90;99.90;;;;;;5051674;28;20033;-57
2023/04/15 09:10:49;;;;;;;3.92;3.60;;;5.70;99.90;;;;;;5052181;28;20032;-57
2023/04/15 09:13:14;;;;;;;3.00;2.80;;;5.70;99.90;;;;;;5052023;28;20503;-58
2023/04/15 09:15:40;;;;;;;3.25;2.95;;;5.80;99.90;;;;;;5052094;28;20029;-55
2023/04/15 09:18:06;;;;;;;4.53;3.78;;;5.90;99.90;;;;;;5051856;28;20032;-54
2023/04/15 09:20:41;;;;;;;4.70;4.30;;;5.90;99.90;;;;;;5050763;28;20029;-53
2023/04/15 09:23:14;;;;;;;4.00;3.58;;;5.70;99.90;;;;;;5050698;28;20028;-52
2023/04/15 09:25:43;;;;;;;3.10;2.90;;;5.80;99.90;;;;;;5051307;28;20428;-54
2023/04/15 09:28:10;;;;;;;4.32;3.92;;;5.90;99.90;;;;;;5050500;28;20264;-54
2023/04/15 09:30:36;;;;;;;5.07;4.68;;;6.00;99.90;;;;;;5052386;28;20020;-53
2023/04/15 09:33:09;;;;;;;4.18;3.80;;;6.00;99.90;;;;;;5050562;28;20128;-57
2023/04/15 09:35:35;;;;;;;4.53;4.13;;;6.00;99.90;;;;;;5051686;28;20032;-56
2023/04/15 09:38:06;;;;;;;3.17;2.97;;;6.00;99.90;;;;;;5051631;28;20041;-57
2023/04/15 09:40:32;;;;;;;3.45;3.20;;;6.10;99.90;;;;;;5051517;28;20021;-58
2023/04/15 09:42:58;;;;;;;4.82;3.70;;;6.10;99.90;;;;;;5051028;28;20032;-52
2023/04/15 09:45:24;;;;;;;4.43;4.00;;;6.00;99.90;;;;;;5051929;28;20650;-56
2023/04/15 09:47:51;;;;;;;3.40;3.10;;;5.90;99.90;;;;;;5050529;28;20044;-56
2023/04/15 09:50:18;;;;;;;3.90;3.60;;;6.00;99.90;;;;;;5051227;28;20025;-58
2023/04/15 09:52:44;;;;;;;3.83;3.45;;;6.10;99.90;;;;;;5049497;28;20040;-56
2023/04/15 09:55:11;;;;;;;4.10;3.67;;;6.20;99.90;;;;;;5051071;28;20017;-57
2023/04/15 09:57:39;;;;;;;4.65;3.22;;;6.20;99.90;;;;;;5051276;28;20105;-54
2023/04/15 10:00:07;;;;;;;5.10;4.68;;;6.30;99.90;;;;;;5053017;28;20468;-53
2023/04/15 10:02:34;;;;;;;3.35;3.08;;;6.10;99.90;;;;;;5071210;28;20387;-58
2023/04/15 10:05:01;;;;;;;5.82;3.50;;;6.20;99.90;;;;;;5071148;28;20055;-57
2023/04/15 10:07:26;;;;;;;4.32;3.05;;;6.00;99.90;;;;;;5070871;28;20024;-56
2023/04/15 10:09:52;;;;;;;3.35;3.05;;;6.10;99.90;;;;;;5070808;28;20503;-56
2023/04/15 10:12:19;;;;;;;3.45;3.15;;;6.20;99.90;;;;;;5053849;28;20108;-57
2023/04/15 10:14:52;;;;;;;4.07;3.67;;;6.30;99.90;;;;;;5049050;28;20134;-57
2023/04/15 10:17:22;;;;;;;4.13;3.73;;;6.30;99.90;;;;;;5050463;28;20056;-58
2023/04/15 10:19:51;;;;;;;4.40;4.00;;;6.40;99.90;;;;;;5052163;28;20021;-56
2023/04/15 10:22:17;;;;;;;6.18;4.97;;;6.40;99.90;;;;;;5070576;28;20033;-55
2023/04/15 10:24:44;;;;;;;4.80;4.30;;;6.50;99.90;;;;;;5070450;28;20379;-58
2023/04/15 10:27:10;;;;;;;4.43;4.03;;;6.60;99.90;;;;;;5070428;28;20111;-58
2023/04/15 10:29:36;;;;;;;4.47;4.07;;;6.60;99.90;;;;;;5028242;28;20026;-55
2023/04/15 10:32:03;;;;;;;4.40;4.00;;;6.40;99.90;;;;;;5019164;28;20044;-54
2023/04/15 10:34:30;;;;;;;4.13;3.72;;;6.40;99.90;;;;;;5019842;28;20538;-52
2023/04/15 10:37:02;;;;;;;3.97;3.65;;;6.40;99.90;;;;;;5020059;28;20040;-56
2023/04/15 10:39:33;;;;;;;4.28;3.88;;;6.30;99.90;;;;;;5029238;28;20029;-57
2023/04/15 10:42:19;;;;;;;9.43;8.32;;;6.30;99.90;;;;;;5024607;28;20037;-58
2023/04/15 10:44:48;;;;;;;5.63;4.78;;;6.20;99.90;;;;;;5029575;28;20030;-56
2023/04/15 10:47:19;;;;;;;4.85;4.45;;;6.20;99.90;;;;;;5019328;28;20495;-51
2023/04/15 10:49:47;;;;;;;8.27;6.35;;;6.20;99.90;;;;;;5038768;28;20412;-55
2023/04/15 10:52:15;;;;;;;8.45;6.53;;;6.30;99.90;;;;;;5026166;28;20028;-56
2023/04/15 10:54:41;;;;;;;5.13;4.63;;;6.40;99.90;;;;;;5018676;28;20473;-57
2023/04/15 10:57:13;;;;;;;9.60;7.75;;;6.20;99.90;;;;;;5019226;28;20025;-55
2023/04/15 11:00:18;;;;;;;5.57;5.07;;;6.30;99.90;;;;;;5019411;28;20369;-52
2023/04/15 11:02:56;;;;;;;;;;;6.30;99.90;;;;;;5020781;28;20052;-55
2023/04/15 11:05:48;;;;;;;9.90;8.23;;;6.30;99.90;;;;;;5020165;28;19913;-55
2023/04/15 11:08:15;;;;;;;13.95;12.48;;;6.30;99.90;;;;;;5020772;28;20037;-55
2023/04/15 11:10:40;;;;;;;7.88;7.15;;;6.30;99.90;;;;;;5021995;28;20087;-57
2023/04/15 11:13:22;;;;;;;5.32;4.82;;;6.40;99.90;;;;;;5021714;28;20025;-58
2023/04/15 11:15:48;;;;;;;13.38;8.13;;;6.60;99.90;;;;;;5030185;28;20108;-57
2023/04/15 11:18:32;;;;;;;32.00;18.20;;;6.70;99.90;;;;;;5028761;28;20033;-59
2023/04/15 11:21:02;;;;;;;13.35;11.57;;;6.60;99.90;;;;;;5030433;28;20021;-56
2023/04/15 11:23:30;;;;;;;6.85;5.78;;;6.50;99.90;;;;;;5030236;28;20100;-58
2023/04/15 11:25:57;;;;;;;7.40;6.70;;;6.60;99.90;;;;;;5030819;28;20029;-58
2023/04/15 11:28:26;;;;;;;8.68;5.70;;;6.50;99.90;;;;;;5047692;28;20052;-57
2023/04/15 11:30:54;;;;;;;12.07;7.38;;;6.60;99.90;;;;;;5050451;28;20057;-54
2023/04/15 11:33:21;;;;;;;19.83;12.80;;;6.60;99.90;;;;;;5050380;28;20447;-56
2023/04/15 11:35:47;;;;;;;12.02;9.88;;;6.40;99.90;;;;;;5049815;28;20044;-56
2023/04/15 11:38:14;;;;;;;7.57;6.78;;;6.30;99.90;;;;;;5049604;28;20391;-57
2023/04/15 11:40:41;;;;;;;6.18;5.57;;;6.30;99.90;;;;;;5050179;28;20081;-55
2023/04/15 11:43:11;;;;;;;7.50;6.32;;;6.30;99.90;;;;;;5049834;28;20036;-56
2023/04/15 11:45:47;;;;;;;8.13;6.55;;;6.30;99.90;;;;;;5049968;28;20028;-54
2023/04/15 11:48:13;;;;;;;15.63;11.13;;;6.30;99.90;;;;;;5049772;28;20029;-54
2023/04/15 11:50:40;;;;;;;14.73;11.13;;;6.40;99.90;;;;;;5050004;28;20021;-58
2023/04/15 11:53:08;;;;;;;6.47;5.85;;;6.40;99.90;;;;;;5049695;28;20457;-53
2023/04/15 11:55:47;;;;;;;14.25;11.63;;;6.60;99.90;;;;;;5048586;28;20052;-54
2023/04/15 11:58:17;;;;;;;13.75;11.13;;;6.60;99.90;;;;;;5049567;28;20021;-56
2023/04/15 12:00:54;;;;;;;12.95;10.07;;;6.70;99.90;;;;;;5049711;28;20052;-52
2023/04/15 12:03:30;;;;;;;7.95;6.78;;;6.50;99.90;;;;;;5049651;28;20017;-57
2023/04/15 12:06:20;;;;;;;9.32;6.45;;;6.70;99.90;;;;;;5049928;28;20021;-55
2023/04/15 12:08:54;;;;;;;14.68;8.63;;;6.70;99.90;;;;;;5049681;28;20107;-58
2023/04/15 12:11:30;;;;;;;10.52;8.52;;;6.60;99.90;;;;;;5049853;28;20021;-59
2023/04/15 12:13:58;;;;;;;13.73;9.13;;;6.50;99.90;;;;;;5049337;28;20049;-59
2023/04/15 12:16:24;;;;;;;8.77;7.60;;;6.50;99.90;;;;;;5051362;28;20037;-56
2023/04/15 12:18:51;;;;;;;6.93;6.03;;;6.60;99.90;;;;;;5053237;28;20415;-52
2023/04/15 12:21:21;;;;;;;9.10;7.25;;;6.60;99.90;;;;;;5053202;28;20104;-55
2023/04/15 12:23:53;;;;;;;9.98;8.55;;;6.60;99.90;;;;;;5053178;28;20134;-58
2023/04/15 12:26:28;;;;;;;14.27;9.13;;;6.60;99.90;;;;;;5053090;28;20009;-57
2023/04/15 12:28:55;;;;;;;10.77;8.15;;;6.60;99.90;;;;;;5052934;28;20107;-56
2023/04/15 12:31:22;;;;;;;12.57;7.93;;;6.60;99.90;;;;;;5053010;28;20039;-58
2023/04/15 12:33:48;;;;;;;9.48;7.35;;;6.70;99.90;;;;;;5052812;28;20025;-58
2023/04/15 12:36:14;;;;;;;8.18;6.80;;;6.80;99.90;;;;;;5052721;28;20116;-58
2023/04/15 12:38:40;;;;;;;20.33;13.18;;;6.80;99.90;;;;;;5051735;28;20463;-54
2023/04/15 12:41:05;;;;;;;10.93;8.73;;;6.80;99.90;;;;;;5051371;28;20025;-58
2023/04/15 12:43:31;;;;;;;7.95;6.18;;;6.70;99.90;;;;;;5052642;28;20104;-59
2023/04/15 12:45:57;;;;;;;13.23;10.45;;;6.80;99.90;;;;;;5052602;28;20021;-58
2023/04/15 12:48:22;;;;;;;7.63;5.70;;;6.60;99.90;;;;;;5051197;28;20541;-58
2023/04/15 12:50:48;;;;;;;6.32;5.50;;;6.50;99.90;;;;;;5052812;28;20025;-56
2023/04/15 12:53:14;;;;;;;7.50;5.15;;;6.50;99.90;;;;;;5052396;28;20423;-55